Time;durP1;ratioP1;P1;durP2;ratioP2;P2;SDS_P1;SDS_P2;PMS_P1;PMS_P2;Temp;Humidity;BMP_temperature;BMP_pressure;BME280_temperature;BME280_humidity;BME280_pressure;Samples;Min_cycle;Max_cycle;Signal;HPM_P1;HPM_P2
2021/12/10 00:00:14;;;;;;;;;;;1.90;99.90;;;;;;5070669;28;19921;-73
2021/12/10 00:02:52;;;;;;;;;;;1.90;99.90;;;;;;5069429;28;19920;-73
2021/12/10 00:05:20;;;;;;;;;;;1.90;99.90;;;;;;5049200;28;19927;-73
2021/12/10 00:07:47;;;;;;;;;;;1.90;99.90;;;;;;5050294;28;19921;-73
2021/12/10 00:10:16;;;;;;;;;;;1.80;99.90;;;;;;5050472;28;19927;-73
2021/12/10 00:12:50;;;;;;;;;;;1.80;99.90;;;;;;5050400;28;19921;-73
2021/12/10 00:15:22;;;;;;;;;;;1.80;99.90;;;;;;5069199;28;20089;-73
2021/12/10 00:17:49;;;;;;;;;;;1.90;99.90;;;;;;5070131;28;20211;-73
2021/12/10 00:20:16;;;;;;;;;;;1.80;99.90;;;;;;5070151;28;19924;-73
2021/12/10 00:22:49;;;;;;;;;;;1.80;99.90;;;;;;5070314;28;19920;-73
2021/12/10 00:25:19;;;;;;;;;;;1.90;99.90;;;;;;5049943;28;19927;-73
2021/12/10 00:27:47;;;;;;;;;;;1.90;99.90;;;;;;5050226;28;19960;-74
2021/12/10 00:30:17;;;;;;;;;;;1.90;99.90;;;;;;5050212;28;19928;-73
2021/12/10 00:32:46;;;;;;;;;;;1.80;99.90;;;;;;5050359;28;19921;-73
2021/12/10 00:35:16;;;;;;;;;;;1.90;99.90;;;;;;5050042;28;19921;-73
2021/12/10 00:37:43;;;;;;;;;;;1.80;99.90;;;;;;5050125;28;19927;-73
2021/12/10 00:40:11;;;;;;;;;;;1.80;99.90;;;;;;5052811;28;19932;-73
2021/12/10 00:42:38;;;;;;;;;;;1.90;99.90;;;;;;5070095;28;19921;-73
2021/12/10 00:45:07;;;;;;;;;;;1.90;99.90;;;;;;5069442;28;20205;-73
2021/12/10 00:47:34;;;;;;;;;;;1.90;99.90;;;;;;5069855;28;20123;-73
2021/12/10 00:50:01;;;;;;;;;;;1.90;99.90;;;;;;5070054;28;20089;-73
2021/12/10 00:52:28;;;;;;;;;;;1.90;99.90;;;;;;5069798;28;19928;-73
2021/12/10 00:54:54;;;;;;;;;;;1.90;99.90;;;;;;5069542;28;19927;-73
2021/12/10 00:57:21;;;;;;;;;;;1.80;99.90;;;;;;5070063;28;19927;-73
2021/12/10 00:59:49;;;;;;;;;;;1.80;99.90;;;;;;5070048;28;19927;-73
2021/12/10 01:02:18;;;;;;;;;;;1.90;99.90;;;;;;5049553;28;20204;-73
2021/12/10 01:04:46;;;;;;;;;;;1.90;99.90;;;;;;5046893;28;19925;-74
2021/12/10 01:07:14;;;;;;;;;;;1.80;99.90;;;;;;5046852;28;19921;-73
2021/12/10 01:09:46;;;;;;;;;;;1.80;99.90;;;;;;5046514;28;19925;-73
2021/12/10 01:12:13;;;;;;;;;;;1.80;99.90;;;;;;5046368;28;19925;-73
2021/12/10 01:14:56;;;;;;;;;;;1.80;99.90;;;;;;5060620;28;19921;-73
2021/12/10 01:25:52;;;;;;;;;;;1.90;99.90;;;;;;5046125;28;19967;-74
2021/12/10 01:28:19;;;;;;;;;;;1.90;99.90;;;;;;5046043;28;19925;-73
2021/12/10 01:30:46;;;;;;;;;;;1.90;99.90;;;;;;5046366;28;19921;-73
2021/12/10 01:33:16;;;;;;;;;;;1.90;99.90;;;;;;5046093;28;19921;-73
2021/12/10 01:35:45;;;;;;;;;;;1.90;99.90;;;;;;5045895;28;19921;-73
2021/12/10 01:38:12;;;;;;;;;;;1.90;99.90;;;;;;5046292;28;19968;-73
2021/12/10 01:40:41;;;;;;;;;;;1.80;99.90;;;;;;5052284;28;19927;-73
2021/12/10 01:43:11;;;;;;;;;;;1.80;99.90;;;;;;5066021;28;19927;-73
2021/12/10 01:45:46;;;;;;;;;;;1.80;99.90;;;;;;5048194;28;19921;-73
2021/12/10 01:48:16;;;;;;;;;;;1.90;99.90;;;;;;5046059;28;19921;-73
2021/12/10 01:50:43;;;;;;;;;;;1.80;99.90;;;;;;5046095;28;19927;-73
2021/12/10 01:53:12;;;;;;;;;;;1.80;99.90;;;;;;5045609;28;19921;-74
2021/12/10 01:55:40;;;;;;;;;;;1.80;99.90;;;;;;5045773;28;19951;-73
2021/12/10 01:58:09;;;;;;;;;;;1.80;99.90;;;;;;5046029;28;19921;-73
2021/12/10 02:00:38;;;;;;;;;;;1.80;99.90;;;;;;5053210;28;19921;-74
2021/12/10 02:03:05;;;;;;;;;;;1.80;99.90;;;;;;5065040;28;19920;-73
2021/12/10 02:05:34;;;;;;;;;;;1.80;99.90;;;;;;5065276;28;19927;-73
2021/12/10 02:08:01;;;;;;;;;;;1.80;99.90;;;;;;5065601;28;19921;-73
2021/12/10 02:10:28;;;;;;;;;;;1.80;99.90;;;;;;5065378;28;19920;-73
2021/12/10 02:12:55;;;;;;;;;;;1.80;99.90;;;;;;5064753;28;20000;-73
2021/12/10 02:15:26;;;;;;;;;;;1.80;99.90;;;;;;5043610;28;20212;-73
2021/12/10 02:17:55;;;;;;;;;;;1.80;99.90;;;;;;5044532;28;19929;-72
2021/12/10 02:20:28;;;;;;;;;;;1.80;99.90;;;;;;5045168;28;19953;-75
2021/12/10 02:22:55;;;;;;;;;;;1.80;99.90;;;;;;5045551;28;20208;-75
2021/12/10 02:25:24;;;;;;;;;;;1.80;99.90;;;;;;5065102;28;19921;-73
2021/12/10 02:27:51;;;;;;;;;;;1.70;99.90;;;;;;5065009;28;19921;-73
2021/12/10 02:30:18;;;;;;;;;;;1.70;99.90;;;;;;5065238;28;19921;-73
2021/12/10 02:32:45;;;;;;;;;;;1.70;99.90;;;;;;5065113;28;19928;-73
2021/12/10 02:35:14;;;;;;;;;;;1.70;99.90;;;;;;5084203;28;19983;-73
2021/12/10 02:37:41;;;;;;;;;;;1.70;99.90;;;;;;5085053;28;19920;-72
2021/12/10 02:40:12;;;;;;;;;;;1.70;99.90;;;;;;5084799;28;19927;-73
2021/12/10 02:42:39;;;;;;;;;;;1.70;99.90;;;;;;5084727;28;19926;-73
2021/12/10 02:45:06;;;;;;;;;;;1.70;99.90;;;;;;5084465;28;19928;-73
2021/12/10 02:47:32;;;;;;;;;;;1.70;99.90;;;;;;5084930;28;19920;-73
2021/12/10 02:49:59;;;;;;;;;;;1.60;99.90;;;;;;5083358;28;19943;-73
2021/12/10 02:52:27;;;;;;;;;;;1.60;99.90;;;;;;5064511;28;19924;-72
2021/12/10 02:54:54;;;;;;;;;;;1.60;99.90;;;;;;5064514;28;19963;-72
2021/12/10 02:57:22;;;;;;;;;;;1.60;99.90;;;;;;5064681;28;19933;-73
2021/12/10 02:59:48;;;;;;;;;;;1.60;99.90;;;;;;5064635;28;19920;-73
2021/12/10 03:02:16;;;;;;;;;;;1.50;99.90;;;;;;5064152;28;19927;-73
2021/12/10 03:04:43;;;;;;;;;;;1.60;99.90;;;;;;5064184;28;20139;-73
2021/12/10 03:07:14;;;;;;;;;;;1.50;99.90;;;;;;5064532;28;19986;-73
2021/12/10 03:09:40;;;;;;;;;;;1.60;99.90;;;;;;5064435;28;19965;-73
2021/12/10 03:12:08;;;;;;;;;;;1.50;99.90;;;;;;5064410;28;19920;-73
2021/12/10 03:14:37;;;;;;;;;;;1.50;99.90;;;;;;5064160;28;20159;-73
2021/12/10 03:17:05;;;;;;;;;;;1.60;99.90;;;;;;5064348;28;19928;-73
2021/12/10 03:19:31;;;;;;;;;;;1.50;99.90;;;;;;5064387;28;19927;-73
2021/12/10 03:21:58;;;;;;;;;;;1.60;99.90;;;;;;5063407;28;19927;-73
2021/12/10 03:24:26;;;;;;;;;;;1.50;99.90;;;;;;5051011;28;19927;-74
2021/12/10 03:26:54;;;;;;;;;;;1.50;99.90;;;;;;5043792;28;20231;-73
2021/12/10 03:29:21;;;;;;;;;;;1.50;99.90;;;;;;5044010;28;19921;-73
2021/12/10 03:31:49;;;;;;;;;;;1.50;99.90;;;;;;5044197;28;19948;-73
2021/12/10 03:34:16;;;;;;;;;;;1.50;99.90;;;;;;5044927;28;19928;-73
2021/12/10 03:36:45;;;;;;;;;;;1.50;99.90;;;;;;5044162;28;19921;-73
2021/12/10 03:39:13;;;;;;;;;;;1.40;99.90;;;;;;5044112;28;19929;-73
2021/12/10 03:41:40;;;;;;;;;;;1.40;99.90;;;;;;5044070;28;19921;-73
2021/12/10 03:44:06;;;;;;;;;;;1.40;99.90;;;;;;5048649;28;19943;-73
2021/12/10 03:46:33;;;;;;;;;;;1.30;99.90;;;;;;5063923;28;19921;-73
2021/12/10 03:49:03;;;;;;;;;;;1.30;99.90;;;;;;5063854;28;19927;-73
2021/12/10 03:51:30;;;;;;;;;;;1.30;99.90;;;;;;5063782;28;19927;-73
2021/12/10 03:53:57;;;;;;;;;;;1.30;99.90;;;;;;5072775;28;20093;-73
2021/12/10 03:56:25;;;;;;;;;;;1.30;99.90;;;;;;5084050;28;19920;-73
2021/12/10 03:58:51;;;;;;;;;;;1.10;99.90;;;;;;5084094;28;20385;-73
2021/12/10 04:01:20;;;;;;;;;;;1.10;99.90;;;;;;5083614;28;19920;-73
2021/12/10 04:03:48;;;;;;;;;;;1.10;99.90;;;;;;5075839;28;19920;-73
2021/12/10 04:06:16;;;;;;;;;;;1.10;99.90;;;;;;5063870;28;19921;-73
2021/12/10 04:08:43;;;;;;;;;;;1.00;99.90;;;;;;5063792;28;19920;-73
2021/12/10 04:11:10;;;;;;;;;;;1.00;99.90;;;;;;5063789;28;20093;-73
2021/12/10 04:13:37;;;;;;;;;;;1.00;99.90;;;;;;5063587;28;19921;-73
2021/12/10 04:16:04;;;;;;;;;;;0.90;99.90;;;;;;5063632;28;20026;-73
2021/12/10 04:18:31;;;;;;;;;;;0.90;99.90;;;;;;5063744;28;19920;-73
2021/12/10 04:20:58;;;;;;;;;;;0.90;99.90;;;;;;5063408;28;20205;-73
2021/12/10 04:23:26;;;;;;;;;;;0.90;99.90;;;;;;5063474;28;19925;-73
2021/12/10 04:25:53;;;;;;;;;;;0.90;99.90;;;;;;5063222;28;20216;-73
2021/12/10 04:28:20;;;;;;;;;;;0.90;99.90;;;;;;5063539;28;19927;-73
2021/12/10 04:30:47;;;;;;;;;;;0.90;99.90;;;;;;5063613;28;19921;-73
2021/12/10 04:33:16;;;;;;;;;;;0.80;99.90;;;;;;5063600;28;19927;-73
2021/12/10 04:35:43;;;;;;;;;;;0.80;99.90;;;;;;5063008;28;19963;-73
2021/12/10 04:38:10;;;;;;;;;;;0.80;99.90;;;;;;5063530;28;20093;-72
2021/12/10 04:40:38;;;;;;;;;;;0.80;99.90;;;;;;5065938;28;19927;-73
2021/12/10 04:43:05;;;;;;;;;;;0.80;99.90;;;;;;5066838;28;19921;-73
2021/12/10 04:45:31;;;;;;;;;;;0.80;99.90;;;;;;5066521;28;19920;-73
2021/12/10 04:47:58;;;;;;;;;;;0.70;99.90;;;;;;5067206;28;20281;-73
2021/12/10 04:50:27;;;;;;;;;;;0.70;99.90;;;;;;5067097;28;19920;-73
2021/12/10 04:52:53;;;;;;;;;;;0.70;99.90;;;;;;5066744;28;19962;-73
2021/12/10 04:55:20;;;;;;;;;;;0.70;99.90;;;;;;5066718;28;19921;-73
2021/12/10 04:57:48;;;;;;;;;;;0.60;99.90;;;;;;5066696;28;20422;-73
2021/12/10 05:00:16;;;;;;;;;;;0.60;99.90;;;;;;5066866;28;19921;-73
2021/12/10 05:02:44;;;;;;;;;;;0.60;99.90;;;;;;5071266;28;19928;-73
2021/12/10 05:05:11;;;;;;;;;;;0.60;99.90;;;;;;5066056;28;19928;-73
2021/12/10 05:07:38;;;;;;;;;;;0.60;99.90;;;;;;5066782;28;19920;-73
2021/12/10 05:10:05;;;;;;;;;;;0.50;99.90;;;;;;5066378;28;20004;-73
2021/12/10 05:12:32;;;;;;;;;;;0.50;99.90;;;;;;5066561;28;19932;-73
2021/12/10 05:15:01;;;;;;;;;;;0.50;99.90;;;;;;5065651;28;19925;-73
2021/12/10 05:17:29;;;;;;;;;;;0.50;99.90;;;;;;5066587;28;19921;-73
2021/12/10 05:19:59;;;;;;;;;;;0.40;99.90;;;;;;5066240;28;19928;-73
2021/12/10 05:22:25;;;;;;;;;;;0.50;99.90;;;;;;5066489;28;19978;-73
2021/12/10 05:24:52;;;;;;;;;;;0.40;99.90;;;;;;5065851;28;19988;-73
2021/12/10 05:27:19;;;;;;;;;;;0.50;99.90;;;;;;5066439;28;20206;-73
2021/12/10 05:29:53;;;;;;;;;;;0.50;99.90;;;;;;5065417;28;20108;-73
2021/12/10 05:32:21;;;;;;;;;;;0.40;99.90;;;;;;5064004;28;19929;-74
2021/12/10 05:34:48;;;;;;;;;;;0.40;99.90;;;;;;5061610;28;20004;-73
2021/12/10 05:37:15;;;;;;;;;;;0.40;99.90;;;;;;5046348;28;19921;-73
2021/12/10 05:39:41;;;;;;;;;;;0.40;99.90;;;;;;5061958;28;19927;-74
2021/12/10 05:42:09;;;;;;;;;;;0.40;99.90;;;;;;5068651;28;19921;-74
2021/12/10 05:44:38;;;;;;;;;;;0.40;99.90;;;;;;5062780;28;19959;-74
2021/12/10 05:47:04;;;;;;;;;;;0.40;99.90;;;;;;5085887;28;20128;-73
2021/12/10 05:49:32;;;;;;;;;;;0.40;99.90;;;;;;5084335;28;19940;-73
2021/12/10 05:51:59;;;;;;;;;;;0.40;99.90;;;;;;5067310;28;19939;-74
2021/12/10 05:54:25;;;;;;;;;;;0.40;99.90;;;;;;5069919;28;19921;-74
2021/12/10 05:56:52;;;;;;;;;;;0.40;99.90;;;;;;5106161;22;19921;-70
2021/12/10 05:59:18;;;;;;;;;;;0.40;99.90;;;;;;5065021;28;19928;-68
2021/12/10 06:01:45;;;;;;;;;;;0.40;99.90;;;;;;5065165;28;19927;-69
2021/12/10 06:04:12;;;;;;;;;;;0.40;99.90;;;;;;5057155;28;19928;-69
2021/12/10 06:06:40;;;;;;;;;;;0.40;99.90;;;;;;5064119;28;19921;-70
2021/12/10 06:09:08;;;;;;;;;;;0.30;99.90;;;;;;5060923;28;19920;-70
2021/12/10 06:11:35;;;;;;;;;;;0.30;99.90;;;;;;5064209;28;19927;-70
2021/12/10 06:14:02;;;;;;;;;;;0.30;99.90;;;;;;5063629;28;20164;-70
2021/12/10 06:16:29;;;;;;;;;;;0.30;99.90;;;;;;5063655;28;19927;-70
2021/12/10 06:18:57;;;;;;;;;;;0.20;99.90;;;;;;5056767;28;19925;-69
2021/12/10 06:21:24;;;;;;;;;;;0.20;99.90;;;;;;5044632;28;20212;-68
2021/12/10 06:23:52;;;;;;;;;;;0.10;99.90;;;;;;5044672;28;19928;-69
2021/12/10 06:26:19;;;;;;;;;;;0.10;99.90;;;;;;5044571;28;19921;-69
2021/12/10 06:28:46;;;;;;;;;;;0.00;99.90;;;;;;5062944;28;19931;-66
2021/12/10 06:31:12;;;;;;;;;;;0.00;99.90;;;;;;5064271;28;19920;-69
2021/12/10 06:33:39;;;;;;;;;;;0.00;99.90;;;;;;5064369;28;19925;-69
2021/12/10 06:36:06;;;;;;;;;;;0.00;99.90;;;;;;5064368;28;19920;-70
2021/12/10 06:38:34;;;;;;;;;;;0.10;99.90;;;;;;5057279;28;19922;-70
2021/12/10 06:41:02;;;;;;;;;;;0.10;99.90;;;;;;5044546;28;19921;-67
2021/12/10 06:43:29;;;;;;;;;;;0.10;99.90;;;;;;5044415;28;19960;-69
2021/12/10 06:45:55;;;;;;;;;;;0.10;99.90;;;;;;5044372;28;19921;-70
2021/12/10 06:48:23;;;;;;;;;;;0.10;99.90;;;;;;5043864;28;19928;-70
2021/12/10 06:50:51;;;;;;;;;;;0.10;99.90;;;;;;5058587;28;19928;-70
2021/12/10 06:53:19;;;;;;;;;;;0.10;99.90;;;;;;5044398;28;19921;-69
2021/12/10 06:55:45;;;;;;;;;;;0.10;99.90;;;;;;5053180;28;19924;-69
2021/12/10 06:58:13;;;;;;;;;;;0.10;99.90;;;;;;5064120;28;19924;-70
2021/12/10 07:00:43;;;;;;;;;;;0.00;99.90;;;;;;5064248;28;19921;-70
2021/12/10 07:03:10;;;;;;;;;;;0.00;99.90;;;;;;5062238;28;19921;-70
2021/12/10 07:05:37;;;;;;;;;;;0.00;99.90;;;;;;5063348;28;19921;-70
2021/12/10 07:08:03;;;;;;;;;;;0.00;99.90;;;;;;5063993;28;19920;-69
2021/12/10 07:10:30;;;;;;;;;;;0.00;99.90;;;;;;5063868;28;19921;-71
2021/12/10 07:12:56;;;;;;;;;;;-0.10;99.90;;;;;;5064116;28;19943;-70
2021/12/10 07:15:25;;;;;;;;;;;-0.10;99.90;;;;;;5063501;28;19920;-69
2021/12/10 07:17:51;;;;;;;;;;;-0.10;99.90;;;;;;5063554;28;19921;-70
2021/12/10 07:20:20;;;;;;;;;;;-0.10;99.90;;;;;;5063815;28;19980;-69
2021/12/10 07:22:46;;;;;;;;;;;-0.10;99.90;;;;;;5063827;28;19921;-70
2021/12/10 07:25:14;;;;;;;;;;;-0.10;99.90;;;;;;5063546;28;19921;-70
2021/12/10 07:27:40;;;;;;;;;;;-0.10;99.90;;;;;;5063870;28;19927;-70
2021/12/10 07:30:08;;;;;;;;;;;-0.10;99.90;;;;;;5061530;28;19921;-69
2021/12/10 07:32:36;;;;;;;;;;;-0.20;99.90;;;;;;5060848;28;20247;-70
2021/12/10 07:35:04;;;;;;;;;;;-0.20;99.90;;;;;;5063810;28;19921;-69
2021/12/10 07:37:30;;;;;;;;;;;-0.20;99.90;;;;;;5062293;28;19927;-69
2021/12/10 07:39:57;;;;;;;;;;;-0.20;99.90;;;;;;5061533;28;20024;-70
2021/12/10 07:42:23;;;;;;;;;;;-0.20;99.90;;;;;;5062654;28;19927;-70
2021/12/10 07:44:51;;;;;;;;;;;-0.20;99.90;;;;;;5062652;28;19921;-71
2021/12/10 07:47:18;;;;;;;;;;;-0.20;99.90;;;;;;5063529;28;19927;-69
2021/12/10 07:49:46;;;;;;;;;;;-0.20;99.90;;;;;;5063659;28;20114;-69
2021/12/10 07:52:18;;;;;;;;;;;-0.20;99.90;;;;;;5063026;28;19921;-70
2021/12/10 07:54:47;;;;;;;;;;;-0.10;99.90;;;;;;5063416;28;19963;-70
2021/12/10 07:57:20;;;;;;;;;;;-0.10;99.90;;;;;;5060714;28;19925;-69
2021/12/10 07:59:48;;;;;;;;;;;-0.20;99.90;;;;;;5063532;28;19983;-70
2021/12/10 08:02:15;;;;;;;;;;;-0.20;99.90;;;;;;5063037;28;19932;-70
2021/12/10 08:04:41;;;;;;;;;;;-0.10;99.90;;;;;;5063298;28;19920;-69
2021/12/10 08:07:15;;;;;;;;;;;-0.20;99.90;;;;;;5062005;28;19948;-70
2021/12/10 08:09:42;;;;;;;;;;;-0.10;99.90;;;;;;5062885;28;19925;-69
2021/12/10 08:12:08;;;;;;;;;;;-0.10;99.90;;;;;;5062795;28;19920;-70
2021/12/10 08:14:35;;;;;;;;;;;-0.10;99.90;;;;;;5065499;28;19927;-69
2021/12/10 08:17:02;;;;;;;;;;;-0.10;99.90;;;;;;5066491;28;20226;-69
2021/12/10 08:19:28;;;;;;;;;;;-0.10;99.90;;;;;;5048046;28;19960;-69
2021/12/10 08:21:55;;;;;;;;;;;-0.10;99.90;;;;;;5065578;28;19920;-69
2021/12/10 08:24:23;;;;;;;;;;;-0.10;99.90;;;;;;5067219;28;19924;-69
2021/12/10 08:26:50;;;;;;;;;;;-0.10;99.90;;;;;;5066404;28;19940;-69
2021/12/10 08:29:20;;;;;;;;;;;-0.10;99.90;;;;;;5046940;28;19928;-69
2021/12/10 08:31:47;;;;;;;;;;;-0.10;99.90;;;;;;5049581;28;19929;-69
2021/12/10 08:34:13;;;;;;;;;;;-0.10;99.90;;;;;;5066386;28;19956;-69
2021/12/10 08:36:40;;;;;;;;;;;0.00;99.90;;;;;;5066737;28;20231;-70
2021/12/10 08:39:09;;;;;;;;;;;0.10;99.90;;;;;;5066435;28;19963;-69
2021/12/10 08:41:38;;;;;;;;;;;0.10;99.90;;;;;;5066893;28;19952;-68
2021/12/10 08:44:05;;;;;;;;;;;0.20;99.90;;;;;;5066378;28;19959;-69
2021/12/10 08:46:32;;;;;;;;;;;0.20;99.90;;;;;;5066559;28;20205;-69
2021/12/10 08:49:00;;;;;;;;;;;0.30;99.90;;;;;;5066740;28;19975;-70
2021/12/10 08:51:29;;;;;;;;;;;0.30;99.90;;;;;;5066561;28;19924;-69
2021/12/10 08:53:55;;;;;;;;;;;0.30;99.90;;;;;;5046545;28;20112;-69
2021/12/10 08:56:22;;;;;;;;;;;0.20;99.90;;;;;;5061775;28;19925;-69
2021/12/10 08:58:51;;;;;;;;;;;0.20;99.90;;;;;;5049859;28;19921;-69
2021/12/10 09:01:21;;;;;;;;;;;0.20;99.90;;;;;;5065136;28;19933;-69
2021/12/10 09:03:50;;;;;;;;;;;0.20;99.90;;;;;;5065742;28;20112;-68
2021/12/10 09:06:17;;;;;;;;;;;0.20;99.90;;;;;;5065860;28;19920;-69
2021/12/10 09:08:44;;;;;;;;;;;0.30;99.90;;;;;;5066206;28;20143;-69
2021/12/10 09:11:11;;;;;;;;;;;0.30;99.90;;;;;;5065465;28;19927;-69
2021/12/10 09:13:38;;;;;;;;;;;0.30;99.90;;;;;;5065754;28;20235;-69
2021/12/10 09:16:08;;;;;;;;;;;0.30;99.90;;;;;;5066068;28;19943;-70
2021/12/10 09:18:38;;;;;;;;;;;0.30;99.90;;;;;;5065945;28;19925;-70
2021/12/10 09:21:06;;;;;;;;;;;0.30;99.90;;;;;;5069443;28;19942;-69
2021/12/10 09:23:32;;;;;;;;;;;0.40;99.90;;;;;;5086040;28;20312;-69
2021/12/10 09:26:01;;;;;;;;;;;0.40;99.90;;;;;;5075260;28;19988;-69
2021/12/10 09:28:29;;;;;;;;;;;0.40;99.90;;;;;;5064851;28;19921;-70
2021/12/10 09:30:56;;;;;;;;;;;0.50;99.90;;;;;;5064491;28;19921;-70
2021/12/10 09:33:25;;;;;;;;;;;0.50;99.90;;;;;;5065676;28;19927;-69
2021/12/10 09:35:52;;;;;;;;;;;0.60;99.90;;;;;;5065412;28;19921;-70
2021/12/10 09:38:19;;;;;;;;;;;0.60;99.90;;;;;;5065333;28;19927;-68
2021/12/10 09:40:48;;;;;;;;;;;0.70;99.90;;;;;;5065586;28;19948;-71
2021/12/10 09:43:15;;;;;;;;;;;0.80;99.90;;;;;;5065348;28;19952;-70
2021/12/10 09:45:43;;;;;;;;;;;0.90;99.90;;;;;;5065429;28;20131;-69
2021/12/10 09:48:11;;;;;;;;;;;0.90;99.90;;;;;;5064981;28;19920;-70
2021/12/10 09:50:41;;;;;;;;;;;1.00;99.90;;;;;;5065451;28;20004;-69
2021/12/10 09:53:07;;;;;;;;;;;1.00;99.90;;;;;;5064686;28;19921;-69
2021/12/10 09:55:34;;;;;;;;;;;1.00;99.90;;;;;;5063707;28;19924;-70
2021/12/10 09:58:01;;;;;;;;;;;1.10;99.90;;;;;;5064682;28;19928;-70
2021/12/10 10:00:29;;;;;;;;;;;1.20;99.90;;;;;;5065273;28;19920;-69
2021/12/10 10:02:56;;;;;;;;;;;1.30;99.90;;;;;;5065493;28;19924;-70
2021/12/10 10:05:27;;;;;;;;;;;1.30;99.90;;;;;;5064978;28;19921;-69
2021/12/10 10:07:55;;;;;;;;;;;1.40;99.90;;;;;;5064633;28;20147;-71
2021/12/10 10:10:23;;;;;;;;;;;1.40;99.90;;;;;;5064744;28;20212;-70
2021/12/10 10:12:51;;;;;;;;;;;1.50;99.90;;;;;;5065125;28;19921;-70
2021/12/10 10:15:19;;;;;;;;;;;1.60;99.90;;;;;;5064837;28;19921;-70
2021/12/10 10:17:45;;;;;;;;;;;1.60;99.90;;;;;;5064948;28;19921;-70
2021/12/10 10:20:13;;;;;;;;;;;1.70;99.90;;;;;;5064776;28;19925;-70
2021/12/10 10:22:40;;;;;;;;;;;1.80;99.90;;;;;;5064921;28;19921;-70
2021/12/10 10:25:11;;;;;;;;;;;1.80;99.90;;;;;;5064625;28;19926;-69
2021/12/10 10:27:38;;;;;;;;;;;1.80;99.90;;;;;;5064387;28;19964;-69
2021/12/10 10:30:07;;;;;;;;;;;1.90;99.90;;;;;;5064338;28;20139;-74
2021/12/10 10:32:35;;;;;;;;;;;1.90;99.90;;;;;;5064817;28;20115;-70
2021/12/10 10:35:04;;;;;;;;;;;1.90;99.90;;;;;;5062939;28;19920;-69
2021/12/10 10:37:32;;;;;;;;;;;1.90;99.90;;;;;;5062952;28;20263;-71
2021/12/10 10:39:59;;;;;;;;;;;1.90;99.90;;;;;;5063775;28;19921;-70
2021/12/10 10:42:28;;;;;;;;;;;1.90;99.90;;;;;;5063944;28;20205;-70
2021/12/10 10:44:56;;;;;;;;;;;1.90;99.90;;;;;;5064323;28;19920;-70
2021/12/10 10:47:24;;;;;;;;;;;1.90;99.90;;;;;;5064484;28;19920;-69
2021/12/10 10:49:51;;;;;;;;;;;1.90;99.90;;;;;;5064442;28;19921;-69
2021/12/10 10:52:20;;;;;;;;;;;1.90;99.90;;;;;;5064073;28;19927;-69
2021/12/10 10:54:48;;;;;;;;;;;2.00;99.90;;;;;;5064380;28;19955;-70
2021/12/10 10:57:15;;;;;;;;;;;2.10;99.90;;;;;;5064378;28;19927;-69
2021/12/10 10:59:44;;;;;;;;;;;2.10;99.90;;;;;;5064290;28;19920;-69
2021/12/10 11:02:11;;;;;;;;;;;2.10;99.90;;;;;;5064554;28;19920;-70
2021/12/10 11:04:41;;;;;;;;;;;2.00;99.90;;;;;;5063278;28;20246;-70
2021/12/10 11:07:09;;;;;;;;;;;2.00;99.90;;;;;;5063856;28;19927;-69
2021/12/10 11:09:36;;;;;;;;;;;1.90;99.90;;;;;;5063897;28;20220;-70
2021/12/10 11:12:05;;;;;;;;;;;1.90;99.90;;;;;;5064100;28;19920;-70
2021/12/10 11:14:33;;;;;;;;;;;1.80;99.90;;;;;;5064025;28;19927;-70
2021/12/10 11:17:05;;;;;;;;;;;1.80;99.90;;;;;;5064147;28;19920;-70
2021/12/10 11:19:32;;;;;;;;;;;1.80;99.90;;;;;;5064338;28;19927;-69
2021/12/10 11:22:01;;;;;;;;;;;1.80;99.90;;;;;;5063983;28;19921;-69
2021/12/10 11:24:34;;;;;;;;;;;1.70;99.90;;;;;;5064111;28;19942;-69
2021/12/10 11:27:04;;;;;;;;;;;1.70;99.90;;;;;;5063900;28;20274;-71
2021/12/10 11:29:32;;;;;;;;;;;1.70;99.90;;;;;;5053797;28;19921;-69
2021/12/10 11:32:00;;;;;;;;;;;1.70;99.90;;;;;;5043885;28;20376;-70
2021/12/10 11:34:41;;;;;;;;;;;1.70;99.90;;;;;;5050317;28;19920;-70
2021/12/10 11:37:09;;;;;;;;;;;1.80;99.90;;;;;;5063985;28;19920;-70
2021/12/10 11:39:53;;;;;;;;;;;1.80;99.90;;;;;;5063776;28;19963;-70
2021/12/10 11:42:33;;;;;;;;;;;1.90;99.90;;;;;;5059489;28;19921;-69
2021/12/10 11:45:17;;;;;;;;;;;1.90;99.90;;;;;;5063283;28;20205;-70
2021/12/10 11:47:45;;;;;;;;;;;2.00;99.90;;;;;;5062300;28;19948;-70
2021/12/10 11:50:21;;;;;;;;;;;2.00;99.90;;;;;;5062567;28;19983;-70
2021/12/10 11:52:59;;;;;;;;;;;2.00;99.90;;;;;;5061410;28;20116;-70
2021/12/10 11:55:26;;;;;;;;;;;2.00;99.90;;;;;;5062047;28;19920;-70
2021/12/10 11:57:52;;;;;;;;;;;2.10;99.90;;;;;;5071462;22;19928;-73
2021/12/10 12:00:21;;;;;;;;;;;2.10;99.90;;;;;;5063074;28;19921;-73
2021/12/10 12:02:48;;;;;;;;;;;2.10;99.90;;;;;;5063685;28;19927;-73
2021/12/10 12:05:17;;;;;;;;;;;2.20;99.90;;;;;;5063091;28;19921;-73
2021/12/10 12:07:45;;;;;;;;;;;2.20;99.90;;;;;;5060143;28;20170;-74
2021/12/10 12:10:18;;;;;;;;;;;2.30;99.90;;;;;;5062063;28;19921;-73
2021/12/10 12:12:47;;;;;;;;;;;2.30;99.90;;;;;;5063761;28;19928;-73
2021/12/10 12:15:16;;;;;;;;;;;2.40;99.90;;;;;;5063434;28;19925;-73
2021/12/10 12:17:45;;;;;;;;;;;2.40;99.90;;;;;;5062732;28;19921;-74
2021/12/10 12:20:25;;;;;;;;;;;2.40;99.90;;;;;;5058188;28;19921;-73
2021/12/10 12:25:43;;;;;;;;;;;2.50;99.90;;;;;;5063387;28;19992;-74
2021/12/10 12:28:10;;;;;;;;;;;2.50;99.90;;;;;;5057799;28;19921;-73
2021/12/10 12:30:50;;;;;;;;;;;2.50;99.90;;;;;;5064415;28;20089;-70
2021/12/10 12:33:16;;;;;;;;;;;2.50;99.90;;;;;;5063309;28;19927;-73
2021/12/10 12:35:43;;;;;;;;;;;2.40;99.90;;;;;;5062798;28;19928;-73
2021/12/10 12:38:15;;;;;;;;;;;2.50;99.90;;;;;;5062592;28;20234;-73
2021/12/10 12:40:42;;;;;;;;;;;2.50;99.90;;;;;;5048236;28;19921;-73
2021/12/10 12:43:09;;;;;;;;;;;2.50;99.90;;;;;;5061961;28;19926;-74
2021/12/10 12:45:48;;;;;;;;;;;2.60;99.90;;;;;;5062803;28;19966;-73
2021/12/10 12:48:15;;;;;;;;;;;2.50;99.90;;;;;;5062537;28;20334;-73
2021/12/10 12:50:44;;;;;;;;;;;2.50;99.90;;;;;;5063399;28;19987;-73
2021/12/10 12:53:15;;;;;;;;;;;2.60;99.90;;;;;;5064450;28;19920;-73
2021/12/10 12:55:46;;;;;;;;;;;2.60;99.90;;;;;;5069030;28;19921;-73
2021/12/10 12:58:16;;;;;;;;;;;2.60;99.90;;;;;;5069422;28;19928;-73
2021/12/10 13:00:46;;;;;;;;;;;2.60;99.90;;;;;;5065419;28;19996;-73
2021/12/10 13:03:14;;;;;;;;;;;2.60;99.90;;;;;;5066155;28;19928;-73
2021/12/10 13:05:43;;;;;;;;;;;2.60;99.90;;;;;;5065769;28;20338;-74
2021/12/10 13:08:13;;;;;;;;;;;2.50;99.90;;;;;;5061019;28;19921;-73
2021/12/10 13:10:42;;;;;;;;;;;2.50;99.90;;;;;;5075503;28;20115;-73
2021/12/10 13:13:14;;;;;;;;;;;2.50;99.90;;;;;;5086739;28;19920;-73
2021/12/10 13:15:46;;;;;;;;;;;2.40;99.90;;;;;;5051309;28;19921;-73
2021/12/10 13:18:13;;;;;;;;;;;2.40;99.90;;;;;;5054353;28;19928;-73
2021/12/10 13:20:45;;;;;;;;;;;2.50;99.90;;;;;;5066863;28;19920;-74
2021/12/10 13:23:18;;;;;;;;;;;2.50;99.90;;;;;;5066771;28;20262;-73
2021/12/10 13:25:45;;;;;;;;;;;2.40;99.90;;;;;;5064636;28;19921;-73
2021/12/10 13:28:12;;;;;;;;;;;2.40;99.90;;;;;;5067493;28;19920;-73
2021/12/10 13:30:42;;;;;;;;;;;2.40;99.90;;;;;;5086498;28;19987;-73
2021/12/10 13:33:09;;;;;;;;;;;2.40;99.90;;;;;;5072104;28;19928;-73
2021/12/10 13:35:36;;;;;;;;;;;2.40;99.90;;;;;;5065564;28;19921;-73
2021/12/10 13:38:03;;;;;;;;;;;2.40;99.90;;;;;;5066140;28;19921;-75
2021/12/10 13:40:32;;;;;;;;;;;2.40;99.90;;;;;;5066042;28;19921;-73
2021/12/10 13:43:02;;;;;;;;;;;2.40;99.90;;;;;;5066127;28;19927;-73
2021/12/10 13:45:28;;;;;;;;;;;2.40;99.90;;;;;;5065171;28;19956;-73
2021/12/10 13:48:02;;;;;;;;;;;2.30;99.90;;;;;;5065858;28;19948;-73
2021/12/10 13:50:30;;;;;;;;;;;2.30;99.90;;;;;;5066454;28;19921;-73
2021/12/10 13:53:00;;;;;;;;;;;2.30;99.90;;;;;;5066024;28;19921;-74
2021/12/10 13:55:28;;;;;;;;;;;2.30;99.90;;;;;;5049183;28;20933;-74
2021/12/10 13:58:13;;;;;;;;;;;2.30;99.90;;;;;;5065563;28;20330;-74
2021/12/10 14:00:49;;;;;;;;;;;2.30;99.90;;;;;;5045801;28;19925;-74
2021/12/10 14:03:16;;;;;;;;;;;2.30;99.90;;;;;;5065389;28;19952;-73
2021/12/10 14:05:43;;;;;;;;;;;2.20;99.90;;;;;;5065371;28;19988;-74
2021/12/10 14:08:18;;;;;;;;;;;2.20;99.90;;;;;;5066382;28;20266;-74
2021/12/10 14:10:46;;;;;;;;;;;2.20;99.90;;;;;;5066123;28;19927;-74
2021/12/10 14:13:27;;;;;;;;;;;2.20;99.90;;;;;;5065005;28;19992;-74
2021/12/10 14:16:04;;;;;;;;;;;2.20;99.90;;;;;;5065365;28;19924;-74
2021/12/10 14:18:33;;;;;;;;;;;2.10;99.90;;;;;;5065537;28;19921;-74
2021/12/10 14:21:01;;;;;;;;;;;2.00;99.90;;;;;;5065435;28;20097;-74
2021/12/10 14:23:35;;;;;;;;;;;2.00;99.90;;;;;;5066201;28;20127;-74
2021/12/10 14:26:03;;;;;;;;;;;2.00;99.90;;;;;;5065563;28;19921;-75
2021/12/10 14:28:34;;;;;;;;;;;2.00;99.90;;;;;;5065509;28;19925;-75
2021/12/10 14:31:03;;;;;;;;;;;2.00;99.90;;;;;;5065232;28;19921;-75
2021/12/10 14:33:31;;;;;;;;;;;2.00;99.90;;;;;;5065576;28;19932;-74
2021/12/10 14:36:00;;;;;;;;;;;2.00;99.90;;;;;;5057382;28;19967;-74
2021/12/10 14:38:49;;;;;;;;;;;2.00;99.90;;;;;;5060664;28;19921;-74
2021/12/10 14:41:20;;;;;;;;;;;2.00;99.90;;;;;;5059051;28;19978;-74
2021/12/10 14:43:49;;;;;;;;;;;1.90;99.90;;;;;;5065324;28;19920;-74
2021/12/10 14:46:20;;;;;;;;;;;2.00;99.90;;;;;;5064976;28;19984;-74